sensor_id;sensor_type;location;lat;lon;timestamp;pressure;altitude;pressure_sealevel;temperature;humidity
12763;BME280;6445;52.490;13.378;2024-01-30T00:00:50;60581.38;;;-146.10;100.00
12763;BME280;6445;52.490;13.378;2024-01-30T00:03:15;59124.13;;;-146.10;99.92
12763;BME280;6445;52.490;13.378;2024-01-30T00:05:41;59709.38;;;-146.10;100.00
12763;BME280;6445;52.490;13.378;2024-01-30T00:08:06;60014.03;;;-146.10;100.00
12763;BME280;6445;52.490;13.378;2024-01-30T00:10:31;59272.44;;;-146.10;100.00
12763;BME280;6445;52.490;13.378;2024-01-30T00:12:56;59037.94;;;-146.10;99.78
12763;BME280;6445;52.490;13.378;2024-01-30T00:15:22;60966.31;;;-146.10;100.00
12763;BME280;6445;52.490;13.378;2024-01-30T00:17:47;60188.44;;;-146.10;100.00
12763;BME280;6445;52.490;13.378;2024-01-30T00:20:13;59466.84;;;-146.10;100.00
12763;BME280;6445;52.490;13.378;2024-01-30T00:22:38;57817.69;;;-146.10;98.04
12763;BME280;6445;52.490;13.378;2024-01-30T00:25:03;57867.75;;;-146.10;98.41
12763;BME280;6445;52.490;13.378;2024-01-30T00:27:29;58164.28;;;-146.10;98.51
12763;BME280;6445;52.490;13.378;2024-01-30T00:29:54;57198.66;;;-146.10;97.63
12763;BME280;6445;52.490;13.378;2024-01-30T00:32:20;57108.53;;;-146.10;97.44
12763;BME280;6445;52.490;13.378;2024-01-30T00:34:45;57258.75;;;-146.10;97.49
12763;BME280;6445;52.490;13.378;2024-01-30T00:37:10;57433.03;;;-146.10;98.59
12763;BME280;6445;52.490;13.378;2024-01-30T00:39:35;57154.59;;;-146.10;97.42
12763;BME280;6445;52.490;13.378;2024-01-30T00:42:01;56737.97;;;-146.10;96.67
12763;BME280;6445;52.490;13.378;2024-01-30T00:44:26;56477.59;;;-146.10;96.58
12763;BME280;6445;52.490;13.378;2024-01-30T00:46:51;56796.06;;;-146.10;97.19
12763;BME280;6445;52.490;13.378;2024-01-30T00:49:16;56389.47;;;-146.10;96.23
12763;BME280;6445;52.490;13.378;2024-01-30T00:51:42;55816.75;;;-146.10;95.63
12763;BME280;6445;52.490;13.378;2024-01-30T00:54:07;55924.88;;;-146.10;95.69
12763;BME280;6445;52.490;13.378;2024-01-30T00:56:33;56171.19;;;-146.10;96.21
12763;BME280;6445;52.490;13.378;2024-01-30T00:58:58;57244.72;;;-146.10;97.92
12763;BME280;6445;52.490;13.378;2024-01-30T01:01:23;58452.81;;;-146.10;99.40
12763;BME280;6445;52.490;13.378;2024-01-30T01:03:48;57607.31;;;-146.10;98.23
12763;BME280;6445;52.490;13.378;2024-01-30T01:06:14;57815.66;;;-146.10;98.65
12763;BME280;6445;52.490;13.378;2024-01-30T01:08:39;58318.56;;;-146.10;99.09
12763;BME280;6445;52.490;13.378;2024-01-30T01:11:04;59166.22;;;-146.10;99.52
12763;BME280;6445;52.490;13.378;2024-01-30T01:13:29;59204.28;;;-146.10;100.00
12763;BME280;6445;52.490;13.378;2024-01-30T01:15:55;59108.09;;;-146.10;100.00
12763;BME280;6445;52.490;13.378;2024-01-30T01:18:20;59110.09;;;-146.10;100.00
12763;BME280;6445;52.490;13.378;2024-01-30T01:20:45;62582.69;;;-146.10;100.00
12763;BME280;6445;52.490;13.378;2024-01-30T01:23:10;64284.00;;;-146.10;100.00
12763;BME280;6445;52.490;13.378;2024-01-30T01:25:36;62482.41;;;-146.10;100.00
12763;BME280;6445;52.490;13.378;2024-01-30T01:28:01;62628.81;;;-146.10;100.00
12763;BME280;6445;52.490;13.378;2024-01-30T01:30:26;63776.34;;;-146.10;100.00
12763;BME280;6445;52.490;13.378;2024-01-30T01:32:53;65606.63;;;-146.10;100.00
12763;BME280;6445;52.490;13.378;2024-01-30T01:35:22;64920.19;;;-146.10;100.00
12763;BME280;6445;52.490;13.378;2024-01-30T01:37:49;66654.63;;;-146.10;100.00
12763;BME280;6445;52.490;13.378;2024-01-30T01:40:23;66706.81;;;-146.10;100.00
12763;BME280;6445;52.490;13.378;2024-01-30T01:42:49;65795.34;;;-146.10;100.00
12763;BME280;6445;52.490;13.378;2024-01-30T01:45:15;63591.75;;;-146.10;100.00
12763;BME280;6445;52.490;13.378;2024-01-30T01:47:40;64348.22;;;-146.10;100.00
12763;BME280;6445;52.490;13.378;2024-01-30T01:50:06;64474.66;;;-146.10;100.00
12763;BME280;6445;52.490;13.378;2024-01-30T01:52:32;65036.59;;;-146.10;100.00
12763;BME280;6445;52.490;13.378;2024-01-30T01:54:57;67992.09;;;-146.10;100.00
12763;BME280;6445;52.490;13.378;2024-01-30T01:57:23;64617.13;;;-146.10;100.00
12763;BME280;6445;52.490;13.378;2024-01-30T01:59:48;66646.59;;;-146.10;100.00
12763;BME280;6445;52.490;13.378;2024-01-30T02:02:14;66891.56;;;-146.10;100.00
12763;BME280;6445;52.490;13.378;2024-01-30T02:04:41;64444.53;;;-146.10;100.00
12763;BME280;6445;52.490;13.378;2024-01-30T02:07:07;66198.84;;;-146.10;100.00
12763;BME280;6445;52.490;13.378;2024-01-30T02:09:32;66008.13;;;-146.10;100.00
12763;BME280;6445;52.490;13.378;2024-01-30T02:11:57;66000.09;;;-146.10;100.00
12763;BME280;6445;52.490;13.378;2024-01-30T02:14:22;67066.25;;;-146.10;100.00
12763;BME280;6445;52.490;13.378;2024-01-30T02:16:48;64982.41;;;-146.10;100.00
12763;BME280;6445;52.490;13.378;2024-01-30T02:19:13;65761.22;;;-146.10;100.00
12763;BME280;6445;52.490;13.378;2024-01-30T02:21:38;67192.78;;;-146.10;100.00
12763;BME280;6445;52.490;13.378;2024-01-30T02:24:04;65277.44;;;-146.10;100.00
12763;BME280;6445;52.490;13.378;2024-01-30T02:26:30;65546.41;;;-146.10;100.00
12763;BME280;6445;52.490;13.378;2024-01-30T02:28:55;72612.44;;;-146.10;100.00
12763;BME280;6445;52.490;13.378;2024-01-30T02:31:20;75430.69;;;-146.10;100.00
12763;BME280;6445;52.490;13.378;2024-01-30T02:33:46;76203.50;;;-146.10;100.00
12763;BME280;6445;52.490;13.378;2024-01-30T02:36:11;77749.53;;;-146.10;100.00
12763;BME280;6445;52.490;13.378;2024-01-30T02:38:36;78007.28;;;-146.10;100.00
12763;BME280;6445;52.490;13.378;2024-01-30T02:41:01;76203.50;;;-146.10;100.00
12763;BME280;6445;52.490;13.378;2024-01-30T02:43:27;74658.06;;;-146.10;100.00
12763;BME280;6445;52.490;13.378;2024-01-30T02:45:52;74817.00;;;-146.10;100.00
12763;BME280;6445;52.490;13.378;2024-01-30T02:48:17;74658.06;;;-146.10;100.00
12763;BME280;6445;52.490;13.378;2024-01-30T02:50:42;75945.88;;;-146.10;100.00
12763;BME280;6445;52.490;13.378;2024-01-30T02:53:08;75688.28;;;-146.10;100.00
12763;BME280;6445;52.490;13.378;2024-01-30T02:55:33;77491.84;;;-146.10;100.00
12763;BME280;6445;52.490;13.378;2024-01-30T02:57:58;76718.78;;;-146.10;100.00
12763;BME280;6445;52.490;13.378;2024-01-30T03:00:24;75688.28;;;-146.10;100.00
12763;BME280;6445;52.490;13.378;2024-01-30T03:02:49;76461.13;;;-146.10;100.00
12763;BME280;6445;52.490;13.378;2024-01-30T03:05:14;76976.44;;;-146.10;100.00
12763;BME280;6445;52.490;13.378;2024-01-30T03:07:39;77234.13;;;-146.10;100.00
12763;BME280;6445;52.490;13.378;2024-01-30T03:10:05;76461.13;;;-146.10;100.00
12763;BME280;6445;52.490;13.378;2024-01-30T03:12:31;76461.13;;;-146.10;100.00
12763;BME280;6445;52.490;13.378;2024-01-30T03:14:56;78007.28;;;-146.10;100.00
12763;BME280;6445;52.490;13.378;2024-01-30T03:17:22;79038.38;;;-146.10;100.00
12763;BME280;6445;52.490;13.378;2024-01-30T03:19:47;80069.72;;;-146.10;100.00
12763;BME280;6445;52.490;13.378;2024-01-30T03:22:13;81359.31;;;-146.10;100.00
12763;BME280;6445;52.490;13.378;2024-01-30T03:24:38;81617.28;;;-146.10;100.00
12763;BME280;6445;52.490;13.378;2024-01-30T03:27:03;81875.25;;;-146.10;100.00
12763;BME280;6445;52.490;13.378;2024-01-30T03:29:28;84455.97;;;-146.10;100.00
12763;BME280;6445;52.490;13.378;2024-01-30T03:31:54;85230.50;;;-146.10;100.00
12763;BME280;6445;52.490;13.378;2024-01-30T03:34:19;85488.72;;;-146.10;100.00
12763;BME280;6445;52.490;13.378;2024-01-30T03:36:44;88071.75;;;-146.10;100.00
12763;BME280;6445;52.490;13.378;2024-01-30T03:39:10;89363.91;;;-146.10;100.00
12763;BME280;6445;52.490;13.378;2024-01-30T03:41:35;88847.00;;;-146.10;100.00
12763;BME280;6445;52.490;13.378;2024-01-30T03:44:01;90139.41;;;-146.10;100.00
12763;BME280;6445;52.490;13.378;2024-01-30T03:46:26;90915.03;;;-146.10;100.00
12763;BME280;6445;52.490;13.378;2024-01-30T03:48:51;92208.09;;;-146.10;100.00
12763;BME280;6445;52.490;13.378;2024-01-30T03:51:17;92208.09;;;-146.10;100.00
12763;BME280;6445;52.490;13.378;2024-01-30T03:53:42;93242.81;;;-146.10;100.00
12763;BME280;6445;52.490;13.378;2024-01-30T03:56:09;92208.09;;;-146.10;100.00
12763;BME280;6445;52.490;13.378;2024-01-30T03:58:34;92466.75;;;-146.10;100.00
12763;BME280;6445;52.490;13.378;2024-01-30T04:01:00;92984.13;;;-146.10;100.00
12763;BME280;6445;52.490;13.378;2024-01-30T04:03:25;93501.53;;;-146.10;100.00
12763;BME280;6445;52.490;13.378;2024-01-30T04:05:53;93242.81;;;-146.10;100.00
12763;BME280;6445;52.490;13.378;2024-01-30T04:08:19;92466.75;;;-146.10;100.00
12763;BME280;6445;52.490;13.378;2024-01-30T04:10:44;92466.75;;;-146.10;100.00
12763;BME280;6445;52.490;13.378;2024-01-30T04:13:10;92208.09;;;-146.10;100.00
12763;BME280;6445;52.490;13.378;2024-01-30T04:15:35;93242.81;;;-146.10;100.00
12763;BME280;6445;52.490;13.378;2024-01-30T04:18:00;93242.81;;;-146.10;100.00
12763;BME280;6445;52.490;13.378;2024-01-30T04:20:26;92984.13;;;-146.10;100.00
12763;BME280;6445;52.490;13.378;2024-01-30T04:22:51;92725.41;;;-146.10;100.00
12763;BME280;6445;52.490;13.378;2024-01-30T04:25:16;92725.41;;;-146.10;100.00
12763;BME280;6445;52.490;13.378;2024-01-30T04:27:41;91949.44;;;-146.10;100.00
12763;BME280;6445;52.490;13.378;2024-01-30T04:30:07;90397.91;;;-146.10;100.00
12763;BME280;6445;52.490;13.378;2024-01-30T04:32:32;90397.91;;;-146.10;100.00
12763;BME280;6445;52.490;13.378;2024-01-30T04:34:58;91173.59;;;-146.10;100.00
12763;BME280;6445;52.490;13.378;2024-01-30T04:37:23;90139.41;;;-146.10;100.00
12763;BME280;6445;52.490;13.378;2024-01-30T04:39:48;90139.41;;;-146.10;100.00
12763;BME280;6445;52.490;13.378;2024-01-30T04:42:14;90656.47;;;-146.10;100.00
12763;BME280;6445;52.490;13.378;2024-01-30T04:44:39;92208.09;;;-146.10;100.00
12763;BME280;6445;52.490;13.378;2024-01-30T04:47:04;93760.28;;;-146.10;100.00
12763;BME280;6445;52.490;13.378;2024-01-30T04:49:31;93760.28;;;-146.10;100.00
12763;BME280;6445;52.490;13.378;2024-01-30T04:51:56;93760.28;;;-146.10;100.00
12763;BME280;6445;52.490;13.378;2024-01-30T04:54:21;93760.28;;;-146.10;100.00
12763;BME280;6445;52.490;13.378;2024-01-30T04:56:47;91690.81;;;-146.10;100.00
12763;BME280;6445;52.490;13.378;2024-01-30T04:59:12;90915.03;;;-146.10;100.00
12763;BME280;6445;52.490;13.378;2024-01-30T05:01:37;90915.03;;;-146.10;100.00
12763;BME280;6445;52.490;13.378;2024-01-30T05:04:03;91173.59;;;-146.10;100.00
12763;BME280;6445;52.490;13.378;2024-01-30T05:06:29;91173.59;;;-146.10;100.00
12763;BME280;6445;52.490;13.378;2024-01-30T05:08:54;89622.38;;;-146.10;100.00
12763;BME280;6445;52.490;13.378;2024-01-30T05:11:19;89105.44;;;-146.10;100.00
12763;BME280;6445;52.490;13.378;2024-01-30T05:13:44;90915.03;;;-146.10;100.00
12763;BME280;6445;52.490;13.378;2024-01-30T05:16:10;90139.41;;;-146.10;100.00
12763;BME280;6445;52.490;13.378;2024-01-30T05:18:35;89363.91;;;-146.10;100.00
12763;BME280;6445;52.490;13.378;2024-01-30T05:21:02;88071.75;;;-146.10;100.00
12763;BME280;6445;52.490;13.378;2024-01-30T05:23:27;86263.47;;;-146.10;100.00
12763;BME280;6445;52.490;13.378;2024-01-30T05:25:52;85488.72;;;-146.10;100.00
12763;BME280;6445;52.490;13.378;2024-01-30T05:28:17;86005.19;;;-146.10;100.00
12763;BME280;6445;52.490;13.378;2024-01-30T05:30:43;82649.28;;;-146.10;100.00
12763;BME280;6445;52.490;13.378;2024-01-30T05:33:08;79811.88;;;-146.10;100.00
12763;BME280;6445;52.490;13.378;2024-01-30T05:35:34;80069.72;;;-146.10;100.00
12763;BME280;6445;52.490;13.378;2024-01-30T05:37:59;78265.03;;;-146.10;100.00
12763;BME280;6445;52.490;13.378;2024-01-30T05:40:25;77435.47;;;-146.10;100.00
12763;BME280;6445;52.490;13.378;2024-01-30T05:42:50;74915.59;;;-146.10;100.00
12763;BME280;6445;52.490;13.378;2024-01-30T05:45:15;75028.25;;;-146.10;100.00
12763;BME280;6445;52.490;13.378;2024-01-30T05:47:40;74026.34;;;-146.10;100.00
12763;BME280;6445;52.490;13.378;2024-01-30T05:50:06;72962.38;;;-146.10;100.00
12763;BME280;6445;52.490;13.378;2024-01-30T05:52:32;74241.59;;;-146.10;100.00
12763;BME280;6445;52.490;13.378;2024-01-30T05:54:57;73668.31;;;-146.10;100.00
12763;BME280;6445;52.490;13.378;2024-01-30T05:57:22;72095.69;;;-146.10;100.00
12763;BME280;6445;52.490;13.378;2024-01-30T05:59:47;73121.25;;;-146.10;100.00
12763;BME280;6445;52.490;13.378;2024-01-30T06:02:13;73161.47;;;-146.10;100.00
12763;BME280;6445;52.490;13.378;2024-01-30T06:04:39;72568.22;;;-146.10;100.00
12763;BME280;6445;52.490;13.378;2024-01-30T06:07:04;73066.94;;;-146.10;100.00
12763;BME280;6445;52.490;13.378;2024-01-30T06:09:31;74348.22;;;-146.10;100.00
12763;BME280;6445;52.490;13.378;2024-01-30T06:11:56;74145.03;;;-146.10;100.00
12763;BME280;6445;52.490;13.378;2024-01-30T06:14:21;74766.69;;;-146.10;100.00
12763;BME280;6445;52.490;13.378;2024-01-30T06:16:47;74068.59;;;-146.10;100.00
12763;BME280;6445;52.490;13.378;2024-01-30T06:19:12;73877.50;;;-146.10;100.00
12763;BME280;6445;52.490;13.378;2024-01-30T06:21:37;72775.34;;;-146.10;100.00
12763;BME280;6445;52.490;13.378;2024-01-30T06:24:03;73308.28;;;-146.10;100.00
12763;BME280;6445;52.490;13.378;2024-01-30T06:26:29;72992.53;;;-146.10;100.00
12763;BME280;6445;52.490;13.378;2024-01-30T06:28:54;72517.94;;;-146.10;100.00
12763;BME280;6445;52.490;13.378;2024-01-30T06:31:19;72779.38;;;-146.10;100.00
12763;BME280;6445;52.490;13.378;2024-01-30T06:33:47;73424.94;;;-146.10;100.00
12763;BME280;6445;52.490;13.378;2024-01-30T06:36:12;72534.03;;;-146.10;100.00
12763;BME280;6445;52.490;13.378;2024-01-30T06:38:37;73406.84;;;-146.10;100.00
12763;BME280;6445;52.490;13.378;2024-01-30T06:41:02;73933.81;;;-146.10;100.00
12763;BME280;6445;52.490;13.378;2024-01-30T06:43:28;74605.75;;;-146.10;100.00
12763;BME280;6445;52.490;13.378;2024-01-30T06:45:53;76046.50;;;-146.10;100.00
12763;BME280;6445;52.490;13.378;2024-01-30T06:48:18;76100.84;;;-146.10;100.00
12763;BME280;6445;52.490;13.378;2024-01-30T06:50:43;73927.78;;;-146.10;100.00
12763;BME280;6445;52.490;13.378;2024-01-30T06:53:09;76334.31;;;-146.10;100.00
12763;BME280;6445;52.490;13.378;2024-01-30T06:55:34;76370.56;;;-146.10;100.00
12763;BME280;6445;52.490;13.378;2024-01-30T06:57:59;75933.81;;;-146.10;100.00
12763;BME280;6445;52.490;13.378;2024-01-30T07:00:24;78522.78;;;-146.10;100.00
12763;BME280;6445;52.490;13.378;2024-01-30T07:02:50;81359.31;;;-146.10;100.00
12763;BME280;6445;52.490;13.378;2024-01-30T07:05:15;80585.50;;;-146.10;100.00
12763;BME280;6445;52.490;13.378;2024-01-30T07:07:42;81101.34;;;-146.10;100.00
12763;BME280;6445;52.490;13.378;2024-01-30T07:10:07;79554.03;;;-146.10;100.00
12763;BME280;6445;52.490;13.378;2024-01-30T07:12:33;81359.31;;;-146.10;100.00
12763;BME280;6445;52.490;13.378;2024-01-30T07:14:58;83165.41;;;-146.10;100.00
12763;BME280;6445;52.490;13.378;2024-01-30T07:17:24;82391.25;;;-146.10;100.00
12763;BME280;6445;52.490;13.378;2024-01-30T07:19:50;81101.34;;;-146.10;100.00
12763;BME280;6445;52.490;13.378;2024-01-30T07:22:15;82391.25;;;-146.10;100.00
12763;BME280;6445;52.490;13.378;2024-01-30T07:24:43;77749.53;;;-146.10;100.00
12763;BME280;6445;52.490;13.378;2024-01-30T07:27:14;76976.44;;;-146.10;100.00
12763;BME280;6445;52.490;13.378;2024-01-30T07:29:39;75179.16;;;-146.10;100.00
12763;BME280;6445;52.490;13.378;2024-01-30T07:32:05;73034.75;;;-146.10;100.00
12763;BME280;6445;52.490;13.378;2024-01-30T07:34:30;70176.00;;;-146.10;100.00
12763;BME280;6445;52.490;13.378;2024-01-30T07:36:55;67943.88;;;-146.10;100.00
12763;BME280;6445;52.490;13.378;2024-01-30T07:39:20;67287.16;;;-146.10;100.00
12763;BME280;6445;52.490;13.378;2024-01-30T07:41:46;65078.75;;;-146.10;100.00
12763;BME280;6445;52.490;13.378;2024-01-30T07:44:11;65572.50;;;-146.10;100.00
12763;BME280;6445;52.490;13.378;2024-01-30T07:46:36;63347.00;;;-146.10;100.00
12763;BME280;6445;52.490;13.378;2024-01-30T07:49:02;62670.94;;;-146.10;100.00
12763;BME280;6445;52.490;13.378;2024-01-30T07:51:27;62554.63;;;-146.10;100.00
12763;BME280;6445;52.490;13.378;2024-01-30T07:53:54;61505.69;;;-146.10;99.14
12763;BME280;6445;52.490;13.378;2024-01-30T07:56:19;60394.94;;;-146.10;98.32
12763;BME280;6445;52.490;13.378;2024-01-30T07:58:44;60581.38;;;-146.10;98.71
12763;BME280;6445;52.490;13.378;2024-01-30T08:01:10;59851.69;;;-146.10;97.86
12763;BME280;6445;52.490;13.378;2024-01-30T08:03:35;58444.81;;;-146.10;96.19
12763;BME280;6445;52.490;13.378;2024-01-30T08:06:02;57579.28;;;-146.10;95.17
12763;BME280;6445;52.490;13.378;2024-01-30T08:08:27;57350.91;;;-146.10;95.41
12763;BME280;6445;52.490;13.378;2024-01-30T08:10:53;57372.94;;;-146.10;94.84
12763;BME280;6445;52.490;13.378;2024-01-30T08:13:18;56804.06;;;-146.10;94.24
12763;BME280;6445;52.490;13.378;2024-01-30T08:15:43;57140.56;;;-146.10;94.72
12763;BME280;6445;52.490;13.378;2024-01-30T08:18:09;56469.59;;;-146.10;93.32
12763;BME280;6445;52.490;13.378;2024-01-30T08:20:34;55580.47;;;-146.10;92.60
12763;BME280;6445;52.490;13.378;2024-01-30T08:23:00;54971.81;;;-146.10;90.99
12763;BME280;6445;52.490;13.378;2024-01-30T08:25:25;54525.41;;;-146.10;90.33
12763;BME280;6445;52.490;13.378;2024-01-30T08:27:51;54817.66;;;-146.10;90.74
12763;BME280;6445;52.490;13.378;2024-01-30T08:30:16;54459.34;;;-146.10;89.24
12763;BME280;6445;52.490;13.378;2024-01-30T08:32:41;53670.72;;;-146.10;87.10
12763;BME280;6445;52.490;13.378;2024-01-30T08:35:06;53424.56;;;-146.10;86.56
12763;BME280;6445;52.490;13.378;2024-01-30T08:37:32;53372.53;;;-146.10;86.26
12763;BME280;6445;52.490;13.378;2024-01-30T08:39:57;52908.28;;;-146.10;83.88
12763;BME280;6445;52.490;13.378;2024-01-30T08:42:22;52890.28;;;-146.10;83.82
12763;BME280;6445;52.490;13.378;2024-01-30T08:44:51;52668.19;;;-146.10;82.58
12763;BME280;6445;52.490;13.378;2024-01-30T08:47:18;52500.13;;;-146.10;80.93
12763;BME280;6445;52.490;13.378;2024-01-30T08:49:43;52304.06;;;-146.10;79.31
12763;BME280;6445;52.490;13.378;2024-01-30T08:52:12;52200.03;;;-146.10;77.62
12763;BME280;6445;52.490;13.378;2024-01-30T08:54:37;52078.00;;;-146.10;75.34
12763;BME280;6445;52.490;13.378;2024-01-30T08:57:02;51995.97;;;-146.10;73.37
12763;BME280;6445;52.490;13.378;2024-01-30T08:59:29;51973.97;;;-146.10;73.48
12763;BME280;6445;52.490;13.378;2024-01-30T09:01:54;51983.97;;;-146.10;72.71
12763;BME280;6445;52.490;13.378;2024-01-30T09:04:20;51935.94;;;-146.10;72.55
12763;BME280;6445;52.490;13.378;2024-01-30T09:06:46;51933.94;;;-146.10;70.73
12763;BME280;6445;52.490;13.378;2024-01-30T09:09:11;51935.94;;;-146.10;72.71
12763;BME280;6445;52.490;13.378;2024-01-30T09:11:36;51933.94;;;-146.10;72.00
12763;BME280;6445;52.490;13.378;2024-01-30T09:14:02;51953.97;;;-146.10;70.79
12763;BME280;6445;52.490;13.378;2024-01-30T09:16:27;51937.94;;;-146.10;71.47
12763;BME280;6445;52.490;13.378;2024-01-30T09:18:52;51963.97;;;-146.10;71.16
12763;BME280;6445;52.490;13.378;2024-01-30T09:21:17;51933.94;;;-146.10;71.16
12763;BME280;6445;52.490;13.378;2024-01-30T09:23:43;51959.97;;;-146.10;71.37
12763;BME280;6445;52.490;13.378;2024-01-30T09:26:08;51919.94;;;-146.10;70.81
12763;BME280;6445;52.490;13.378;2024-01-30T09:28:33;51947.97;;;-146.10;70.91
12763;BME280;6445;52.490;13.378;2024-01-30T09:30:59;51931.94;;;-146.10;70.31
12763;BME280;6445;52.490;13.378;2024-01-30T09:33:24;51919.94;;;-146.10;70.16
12763;BME280;6445;52.490;13.378;2024-01-30T09:35:49;51887.94;;;-146.10;70.19
12763;BME280;6445;52.490;13.378;2024-01-30T09:38:14;51899.94;;;-146.10;69.83
12763;BME280;6445;52.490;13.378;2024-01-30T09:40:39;51905.94;;;-146.10;70.29
12763;BME280;6445;52.490;13.378;2024-01-30T09:43:06;51897.94;;;-146.10;68.80
12763;BME280;6445;52.490;13.378;2024-01-30T09:45:32;51913.94;;;-146.10;68.60
12763;BME280;6445;52.490;13.378;2024-01-30T09:47:59;51897.94;;;-146.10;67.32
12763;BME280;6445;52.490;13.378;2024-01-30T09:50:24;51883.94;;;-146.10;66.87
12763;BME280;6445;52.490;13.378;2024-01-30T09:52:51;51919.94;;;-146.10;65.05
12763;BME280;6445;52.490;13.378;2024-01-30T09:55:16;51905.94;;;-146.10;64.36
12763;BME280;6445;52.490;13.378;2024-01-30T09:57:41;51897.94;;;-146.10;62.87
12763;BME280;6445;52.490;13.378;2024-01-30T10:00:07;51897.94;;;-146.10;59.83
12763;BME280;6445;52.490;13.378;2024-01-30T10:02:34;51909.94;;;-146.10;55.54
12763;BME280;6445;52.490;13.378;2024-01-30T10:05:00;51945.97;;;-146.10;53.29
12763;BME280;6445;52.490;13.378;2024-01-30T10:07:26;51919.94;;;-146.10;53.90
12763;BME280;6445;52.490;13.378;2024-01-30T10:09:52;51879.94;;;-146.10;54.76
12763;BME280;6445;52.490;13.378;2024-01-30T10:12:18;51891.94;;;-146.10;57.20
12763;BME280;6445;52.490;13.378;2024-01-30T10:14:44;51881.94;;;-146.10;55.20
12763;BME280;6445;52.490;13.378;2024-01-30T10:17:10;51879.94;;;-146.10;55.61
12763;BME280;6445;52.490;13.378;2024-01-30T10:19:36;51893.94;;;-146.10;55.26
12763;BME280;6445;52.490;13.378;2024-01-30T10:22:02;51891.94;;;-146.10;54.96
12763;BME280;6445;52.490;13.378;2024-01-30T10:24:27;51909.94;;;-146.10;54.10
12763;BME280;6445;52.490;13.378;2024-01-30T10:26:55;51907.94;;;-146.10;55.49
12763;BME280;6445;52.490;13.378;2024-01-30T10:29:20;51897.94;;;-146.10;55.74
12763;BME280;6445;52.490;13.378;2024-01-30T10:31:45;51909.94;;;-146.10;56.45
12763;BME280;6445;52.490;13.378;2024-01-30T10:34:10;51879.94;;;-146.10;57.06
12763;BME280;6445;52.490;13.378;2024-01-30T10:36:40;51919.94;;;-146.10;56.49
12763;BME280;6445;52.490;13.378;2024-01-30T10:39:08;51905.94;;;-146.10;55.70
12763;BME280;6445;52.490;13.378;2024-01-30T10:41:41;51903.94;;;-146.10;55.84
12763;BME280;6445;52.490;13.378;2024-01-30T10:44:08;51889.94;;;-146.10;56.09
12763;BME280;6445;52.490;13.378;2024-01-30T10:46:35;51851.94;;;-146.10;59.08
12763;BME280;6445;52.490;13.378;2024-01-30T10:49:04;51879.94;;;-146.10;58.29
12763;BME280;6445;52.490;13.378;2024-01-30T10:51:31;51893.94;;;-146.10;58.32
12763;BME280;6445;52.490;13.378;2024-01-30T10:53:57;51877.94;;;-146.10;58.23
12763;BME280;6445;52.490;13.378;2024-01-30T10:56:23;51903.94;;;-146.10;58.06
12763;BME280;6445;52.490;13.378;2024-01-30T10:58:50;51867.94;;;-146.10;57.71
12763;BME280;6445;52.490;13.378;2024-01-30T11:01:18;51915.94;;;-146.10;57.15
12763;BME280;6445;52.490;13.378;2024-01-30T11:03:44;51903.94;;;-146.10;56.83
12763;BME280;6445;52.490;13.378;2024-01-30T11:06:11;51897.94;;;-146.10;56.09
12763;BME280;6445;52.490;13.378;2024-01-30T11:08:39;51893.94;;;-146.10;55.26
12763;BME280;6445;52.490;13.378;2024-01-30T11:11:09;51901.94;;;-146.10;56.30
12763;BME280;6445;52.490;13.378;2024-01-30T11:13:34;51895.94;;;-146.10;57.15
12763;BME280;6445;52.490;13.378;2024-01-30T11:16:01;51899.94;;;-146.10;56.97
12763;BME280;6445;52.490;13.378;2024-01-30T11:18:29;51883.94;;;-146.10;56.70
12763;BME280;6445;52.490;13.378;2024-01-30T11:20:59;51901.94;;;-146.10;57.55
12763;BME280;6445;52.490;13.378;2024-01-30T11:23:27;51889.94;;;-146.10;58.20
12763;BME280;6445;52.490;13.378;2024-01-30T11:25:53;51893.94;;;-146.10;58.04
12763;BME280;6445;52.490;13.378;2024-01-30T11:28:18;51885.94;;;-146.10;57.46
12763;BME280;6445;52.490;13.378;2024-01-30T11:30:45;51917.94;;;-146.10;56.59
12763;BME280;6445;52.490;13.378;2024-01-30T11:33:13;51893.94;;;-146.10;56.22
12763;BME280;6445;52.490;13.378;2024-01-30T11:35:44;51879.94;;;-146.10;56.08
12763;BME280;6445;52.490;13.378;2024-01-30T11:38:10;51901.94;;;-146.10;56.94
12763;BME280;6445;52.490;13.378;2024-01-30T11:40:37;51901.94;;;-146.10;57.00
12763;BME280;6445;52.490;13.378;2024-01-30T11:43:04;51877.94;;;-146.10;57.15
12763;BME280;6445;52.490;13.378;2024-01-30T11:45:30;51889.94;;;-146.10;56.64
12763;BME280;6445;52.490;13.378;2024-01-30T11:47:56;51887.94;;;-146.10;57.68
12763;BME280;6445;52.490;13.378;2024-01-30T11:50:22;51913.94;;;-146.10;57.43
12763;BME280;6445;52.490;13.378;2024-01-30T11:52:48;51903.94;;;-146.10;56.56
12763;BME280;6445;52.490;13.378;2024-01-30T11:55:14;51899.94;;;-146.10;57.16
12763;BME280;6445;52.490;13.378;2024-01-30T11:57:40;51947.97;;;-146.10;55.60
12763;BME280;6445;52.490;13.378;2024-01-30T12:00:06;51907.94;;;-146.10;56.44
12763;BME280;6445;52.490;13.378;2024-01-30T12:02:38;51917.94;;;-146.10;56.45
12763;BME280;6445;52.490;13.378;2024-01-30T12:05:07;51887.94;;;-146.10;56.68
12763;BME280;6445;52.490;13.378;2024-01-30T12:07:33;51901.94;;;-146.10;56.18
12763;BME280;6445;52.490;13.378;2024-01-30T12:09:59;51931.94;;;-146.10;55.71
12763;BME280;6445;52.490;13.378;2024-01-30T12:12:28;51957.97;;;-146.10;55.05
12763;BME280;6445;52.490;13.378;2024-01-30T12:14:55;51901.94;;;-146.10;55.55
12763;BME280;6445;52.490;13.378;2024-01-30T12:17:31;51927.94;;;-146.10;55.78
12763;BME280;6445;52.490;13.378;2024-01-30T12:20:06;51919.94;;;-146.10;55.05
12763;BME280;6445;52.490;13.378;2024-01-30T12:22:43;51927.94;;;-146.10;55.54
12763;BME280;6445;52.490;13.378;2024-01-30T12:25:14;51937.94;;;-146.10;56.21
12763;BME280;6445;52.490;13.378;2024-01-30T12:27:45;51915.94;;;-146.10;56.79